Time;durP1;ratioP1;P1;durP2;ratioP2;P2;SDS_P1;SDS_P2;PMS_P1;PMS_P2;Temp;Humidity;BMP_temperature;BMP_pressure;BME280_temperature;BME280_humidity;BME280_pressure;Samples;Min_cycle;Max_cycle;Signal;HPM_P1;HPM_P2
2021/05/06 00:34:09;;;;;;;9.00;4.00;;;4.90;97.30;;;;;;4955315;29;20426;-90
2021/05/06 00:36:36;;;;;;;3.83;3.63;;;4.80;97.30;;;;;;4938160;29;20469;-90
2021/05/06 00:39:07;;;;;;;3.70;3.13;;;4.80;97.30;;;;;;4937752;29;20231;-89
2021/05/06 00:41:52;;;;;;;6.37;4.00;;;4.70;97.30;;;;;;4936554;29;20454;-90
2021/05/06 00:56:02;;;;;;;7.83;3.73;;;4.70;97.30;;;;;;4954489;29;20525;-90
2021/05/06 01:01:01;;;;;;;5.50;4.00;;;4.80;97.30;;;;;;4954523;29;20422;-90
2021/05/06 01:03:45;;;;;;;5.73;4.50;;;4.80;97.30;;;;;;4937600;29;20462;-89
2021/05/06 01:06:15;;;;;;;7.03;3.73;;;4.80;97.30;;;;;;4937560;29;20427;-90
2021/05/06 01:08:45;;;;;;;7.27;3.63;;;4.70;97.30;;;;;;4936880;29;20438;-90
2021/05/06 01:11:38;;;;;;;7.80;4.17;;;4.70;97.30;;;;;;4937075;29;20461;-90
2021/05/06 01:14:05;;;;;;;12.27;4.63;;;4.60;97.30;;;;;;4954432;29;20419;-90
2021/05/06 01:16:30;;;;;;;5.90;3.90;;;4.60;97.30;;;;;;4937984;29;20498;-90
2021/05/06 01:18:58;;;;;;;8.40;4.00;;;4.60;97.30;;;;;;4938523;29;20446;-90
2021/05/06 01:21:24;;;;;;;6.90;4.07;;;4.60;97.30;;;;;;4938542;29;20266;-90
2021/05/06 01:23:51;;;;;;;6.67;4.27;;;4.60;97.30;;;;;;4939089;29;20418;-90
2021/05/06 01:26:27;;;;;;;6.00;4.10;;;4.50;97.30;;;;;;4937424;29;20618;-90
2021/05/06 01:28:56;;;;;;;7.07;3.83;;;4.50;97.30;;;;;;4938290;29;20474;-89
2021/05/06 01:31:24;;;;;;;7.80;4.13;;;4.50;97.30;;;;;;4937971;29;20955;-89
2021/05/06 01:33:58;;;;;;;7.90;4.70;;;4.50;97.30;;;;;;4938151;29;20510;-90
2021/05/06 01:36:31;;;;;;;5.40;3.93;;;4.50;97.30;;;;;;4937866;29;20545;-90
2021/05/06 01:39:15;;;;;;;7.13;4.33;;;4.50;97.30;;;;;;4938085;29;20443;-90
2021/05/06 01:41:58;;;;;;;15.27;4.70;;;4.50;97.30;;;;;;4937926;29;20415;-90
2021/05/06 01:47:22;;;;;;;6.57;4.00;;;4.50;97.30;;;;;;4953830;29;20829;-89
2021/05/06 01:49:56;;;;;;;7.40;4.27;;;4.50;97.30;;;;;;4953887;29;20464;-90
2021/05/06 02:00:24;;;;;;;8.33;5.17;;;4.50;97.30;;;;;;4976612;28;20414;-91
2021/05/06 02:02:50;;;;;;;8.00;4.57;;;4.60;97.30;;;;;;4960650;29;20438;-91
2021/05/06 02:05:16;;;;;;;7.33;4.80;;;4.60;97.30;;;;;;4961700;29;20430;-90
2021/05/06 02:07:43;;;;;;;9.50;5.20;;;4.60;97.30;;;;;;4938306;29;20466;-90
2021/05/06 02:10:13;;;;;;;6.87;5.20;;;4.60;97.30;;;;;;4937143;29;20468;-90
2021/05/06 02:12:38;;;;;;;9.33;5.13;;;4.60;97.30;;;;;;4954110;29;20419;-90
2021/05/06 02:15:17;;;;;;;8.80;5.23;;;4.60;97.30;;;;;;4950105;28;20468;-90
2021/05/06 02:17:43;;;;;;;7.50;5.00;;;4.50;97.30;;;;;;4955754;28;20441;-90
2021/05/06 02:33:08;;;;;;;8.70;5.90;;;4.40;97.30;;;;;;5021102;23;21082;-90
2021/05/06 02:35:34;;;;;;;7.50;4.97;;;4.40;97.30;;;;;;4954787;28;20469;-90
2021/05/06 02:38:00;;;;;;;16.83;5.80;;;4.40;97.30;;;;;;4957555;28;20419;-89
2021/05/06 02:40:26;;;;;;;7.70;4.90;;;4.40;97.30;;;;;;4958952;28;20414;-90
2021/05/06 02:42:52;;;;;;;8.53;5.20;;;4.30;97.30;;;;;;4958845;28;20277;-90
2021/05/06 02:45:17;;;;;;;9.17;4.57;;;4.30;97.30;;;;;;4959174;28;20190;-90
2021/05/06 02:47:43;;;;;;;7.73;4.77;;;4.30;97.30;;;;;;4976708;23;20270;-86
2021/05/06 02:50:14;;;;;;;10.63;5.30;;;4.30;97.30;;;;;;4955290;29;20555;-86
2021/05/06 02:53:02;;;;;;;7.80;5.13;;;4.20;97.30;;;;;;4956810;29;20179;-86
2021/05/06 02:55:41;;;;;;;5.47;4.90;;;4.20;97.30;;;;;;4956708;29;20454;-86
2021/05/06 02:58:15;;;;;;;8.93;5.47;;;4.20;97.30;;;;;;4938523;29;20418;-85
2021/05/06 03:03:24;;;;;;;11.20;5.10;;;4.10;97.30;;;;;;4940312;29;20440;-86
2021/05/06 03:05:55;;;;;;;8.83;5.23;;;4.10;97.30;;;;;;4938880;29;20428;-85
2021/05/06 03:08:30;;;;;;;8.67;5.33;;;4.00;97.30;;;;;;4939357;29;20690;-85
2021/05/06 03:22:41;;;;;;;7.83;4.70;;;4.10;97.30;;;;;;4940392;29;20487;-87
2021/05/06 03:24:32;;;;;;;8.40;5.10;;;4.10;97.30;;;;;;4939772;29;20447;-86
2021/05/06 03:27:00;;;;;;;7.00;4.70;;;4.10;97.30;;;;;;4938550;29;20513;-85
2021/05/06 03:29:32;;;;;;;7.90;4.17;;;4.10;97.30;;;;;;4939733;29;20423;-85
2021/05/06 03:45:33;;;;;;;6.43;4.43;;;4.20;97.30;;;;;;4938906;29;20411;-85
2021/05/06 03:48:40;;;;;;;8.07;4.70;;;4.20;97.30;;;;;;4937254;29;20467;-85
2021/05/06 04:16:10;;;;;;;8.40;4.47;;;4.40;97.30;;;;;;4937207;29;20445;-86
2021/05/06 04:18:35;;;;;;;9.53;5.00;;;4.40;97.30;;;;;;4936519;29;20452;-87
2021/05/06 04:37:11;;;;;;;8.17;4.60;;;4.90;97.30;;;;;;4936653;29;20988;-86
2021/05/06 04:39:44;;;;;;;8.47;4.47;;;4.90;97.30;;;;;;4935224;29;20503;-86
2021/05/06 04:45:19;;;;;;;7.30;5.03;;;5.00;97.30;;;;;;4936830;29;20387;-86
2021/05/06 04:53:29;;;;;;;7.07;4.93;;;5.20;97.30;;;;;;4936880;29;20426;-86
2021/05/06 04:53:36;;;;;;;10.27;5.43;;;5.30;97.30;;;;;;4936905;29;20403;-86
2021/05/06 05:04:16;;;;;;;10.40;5.10;;;5.50;97.30;;;;;;4938297;29;20391;-85
2021/05/06 05:06:54;;;;;;;7.53;3.90;;;5.60;97.30;;;;;;4920896;29;20450;-86
2021/05/06 05:12:16;;;;;;;9.63;4.83;;;5.70;97.30;;;;;;4938746;29;20396;-85
2021/05/06 05:20:05;;;;;;;6.50;4.43;;;5.90;97.30;;;;;;4935947;29;20453;-87
2021/05/06 05:25:22;;;;;;;6.10;4.10;;;6.00;97.30;;;;;;4936539;29;20387;-87
2021/05/06 05:27:48;;;;;;;4.83;4.17;;;6.00;97.30;;;;;;4919379;29;20459;-87
2021/05/06 05:30:14;;;;;;;4.97;3.93;;;5.90;97.30;;;;;;4918982;29;20406;-86
2021/05/06 05:32:39;;;;;;;5.30;4.37;;;5.90;97.30;;;;;;4919392;29;20203;-87
2021/05/06 05:35:16;;;;;;;8.93;4.40;;;6.00;97.30;;;;;;4921275;29;20412;-86
2021/05/06 05:37:47;;;;;;;7.33;4.23;;;6.10;97.30;;;;;;4920295;29;20687;-86
2021/05/06 05:40:27;;;;;;;8.07;5.50;;;6.20;97.30;;;;;;4919476;29;20547;-86
2021/05/06 05:43:01;;;;;;;7.57;4.00;;;6.30;97.30;;;;;;4919109;29;20420;-87
2021/05/06 05:54:33;;;;;;;7.33;4.30;;;6.50;97.30;;;;;;4935354;29;20443;-86
2021/05/06 05:56:12;;;;;;;7.30;5.00;;;6.50;97.30;;;;;;4934850;29;20475;-86
2021/05/06 05:58:37;;;;;;;8.60;4.23;;;6.60;97.30;;;;;;4933765;29;20427;-86
2021/05/06 06:01:03;;;;;;;5.23;3.50;;;6.70;97.30;;;;;;4918099;29;20695;-87
2021/05/06 06:03:28;;;;;;;7.37;3.20;;;6.80;97.30;;;;;;4917952;29;20175;-87
2021/05/06 06:05:54;;;;;;;7.17;4.00;;;6.90;97.30;;;;;;4918260;29;20187;-87
2021/05/06 06:08:24;;;;;;;5.23;3.70;;;6.90;97.30;;;;;;4918139;29;20198;-87
2021/05/06 06:10:49;;;;;;;5.63;4.00;;;6.90;97.30;;;;;;4918098;29;20287;-87
2021/05/06 06:13:17;;;;;;;6.43;3.80;;;6.90;97.30;;;;;;4920832;29;20935;-87
2021/05/06 06:18:27;;;;;;;4.63;3.80;;;6.90;97.30;;;;;;4938624;29;20425;-86
2021/05/06 06:21:06;;;;;;;8.80;3.60;;;6.90;97.30;;;;;;4939048;29;20844;-85
2021/05/06 06:23:32;;;;;;;6.10;4.00;;;6.90;97.30;;;;;;4918808;29;20914;-85
2021/05/06 06:25:59;;;;;;;6.00;3.80;;;6.90;97.30;;;;;;4920048;29;20434;-86
2021/05/06 06:28:25;;;;;;;6.43;3.47;;;7.00;97.30;;;;;;4916783;29;20181;-86
2021/05/06 06:30:51;;;;;;;4.70;3.13;;;6.90;97.30;;;;;;4921787;29;20426;-86
2021/05/06 06:33:17;;;;;;;5.37;3.93;;;7.00;97.30;;;;;;4920803;29;20890;-86
2021/05/06 06:35:42;;;;;;;5.97;4.47;;;7.00;97.30;;;;;;4904839;29;20243;-85
2021/05/06 06:38:10;;;;;;;5.90;4.20;;;7.10;97.30;;;;;;4918011;29;20176;-86
2021/05/06 06:40:44;;;;;;;7.23;4.43;;;7.30;97.30;;;;;;4936098;29;20172;-86
2021/05/06 06:43:09;;;;;;;5.30;3.77;;;7.50;97.30;;;;;;4938251;29;20403;-86
2021/05/06 06:45:35;;;;;;;5.37;3.43;;;7.60;97.30;;;;;;4921171;29;20424;-86
2021/05/06 06:48:00;;;;;;;6.40;3.40;;;7.70;96.90;;;;;;4936898;29;20232;-85
2021/05/06 06:50:26;;;;;;;6.43;3.53;;;7.80;96.60;;;;;;4936616;29;20187;-85
2021/05/06 06:52:51;;;;;;;7.80;5.23;;;7.90;96.20;;;;;;4936227;29;20192;-86
2021/05/06 06:55:17;;;;;;;9.00;3.50;;;8.00;97.10;;;;;;4935116;29;20200;-86
2021/05/06 06:57:44;;;;;;;6.23;4.03;;;8.10;96.30;;;;;;4935188;29;20227;-86
2021/05/06 07:00:10;;;;;;;6.13;3.07;;;8.10;96.20;;;;;;4937258;29;20699;-86
2021/05/06 07:02:35;;;;;;;4.00;3.00;;;8.00;95.30;;;;;;4936501;29;20411;-85
2021/05/06 07:05:01;;;;;;;5.17;3.10;;;8.10;96.20;;;;;;4936953;29;20419;-86
2021/05/06 07:07:27;;;;;;;5.97;4.13;;;8.30;96.50;;;;;;4937643;29;20192;-86
2021/05/06 07:09:52;;;;;;;6.53;4.03;;;8.40;95.40;;;;;;4936686;29;20191;-86
2021/05/06 07:12:18;;;;;;;6.20;3.53;;;8.30;95.00;;;;;;4936995;29;20412;-86
2021/05/06 07:14:44;;;;;;;6.40;3.70;;;8.30;95.40;;;;;;4937142;29;20187;-86
2021/05/06 07:17:09;;;;;;;5.03;3.67;;;8.50;95.90;;;;;;4936856;29;20230;-87
2021/05/06 07:19:35;;;;;;;7.90;3.50;;;8.50;94.50;;;;;;4937343;29;20176;-86
2021/05/06 07:22:01;;;;;;;3.97;2.97;;;8.60;94.70;;;;;;4937098;29;20183;-86
2021/05/06 07:24:26;;;;;;;4.87;3.67;;;8.80;94.30;;;;;;4935519;29;20415;-86
2021/05/06 07:26:52;;;;;;;6.50;3.50;;;8.90;93.70;;;;;;4936816;29;20208;-85
2021/05/06 07:29:20;;;;;;;6.40;2.87;;;8.80;93.40;;;;;;4936426;29;20208;-86
2021/05/06 07:31:47;;;;;;;6.20;3.27;;;8.90;94.00;;;;;;4936987;29;20184;-85
2021/05/06 07:34:13;;;;;;;6.20;3.30;;;8.90;93.80;;;;;;4937108;29;20469;-86
2021/05/06 07:36:41;;;;;;;4.23;3.00;;;8.90;93.90;;;;;;4936876;29;20474;-86
2021/05/06 07:39:09;;;;;;;4.60;3.43;;;9.10;93.40;;;;;;4937620;29;20416;-86
2021/05/06 07:41:35;;;;;;;4.43;3.50;;;9.30;93.40;;;;;;4936000;29;20422;-86
2021/05/06 07:44:01;;;;;;;5.73;2.80;;;9.30;92.80;;;;;;4936537;29;20515;-88
2021/05/06 07:46:27;;;;;;;4.37;3.10;;;9.30;92.50;;;;;;4935247;29;20247;-86
2021/05/06 07:48:54;;;;;;;2.70;2.30;;;9.60;90.70;;;;;;4937131;29;20211;-86
2021/05/06 07:51:20;;;;;;;4.40;2.50;;;9.80;90.20;;;;;;4935839;29;20435;-86
2021/05/06 07:53:51;;;;;;;2.67;2.50;;;10.10;90.20;;;;;;4937139;29;20471;-85
2021/05/06 07:56:17;;;;;;;4.63;2.73;;;10.10;89.20;;;;;;4936460;29;20459;-86
2021/05/06 07:58:43;;;;;;;3.33;2.60;;;9.80;89.30;;;;;;4934890;29;21003;-87
2021/05/06 08:01:09;;;;;;;9.53;2.83;;;9.60;89.70;;;;;;4935501;29;20419;-86
2021/05/06 08:03:36;;;;;;;7.30;2.30;;;9.60;90.10;;;;;;4935729;29;20230;-87
2021/05/06 08:06:01;;;;;;;4.73;2.90;;;9.50;90.00;;;;;;4920233;29;20471;-86
2021/05/06 08:08:29;;;;;;;4.70;2.50;;;9.30;89.20;;;;;;4936538;29;20834;-86
2021/05/06 08:10:57;;;;;;;3.10;2.60;;;9.20;89.90;;;;;;4935700;29;20175;-86
2021/05/06 08:13:23;;;;;;;5.77;3.03;;;9.30;89.70;;;;;;4935097;29;20490;-86
2021/05/06 08:15:50;;;;;;;2.70;2.20;;;9.70;89.10;;;;;;4936927;29;20981;-85
2021/05/06 08:18:16;;;;;;;4.13;2.37;;;9.80;87.80;;;;;;4935650;29;20427;-87
2021/05/06 08:20:42;;;;;;;4.27;2.30;;;10.00;87.70;;;;;;4935262;29;20404;-86
2021/05/06 08:23:11;;;;;;;2.83;1.83;;;10.00;86.40;;;;;;4933724;29;20423;-88
2021/05/06 08:25:38;;;;;;;2.80;2.00;;;10.10;87.00;;;;;;4933662;29;20190;-86
2021/05/06 08:28:07;;;;;;;2.67;2.27;;;10.20;87.20;;;;;;4934979;29;20442;-86
2021/05/06 08:30:34;;;;;;;3.70;2.17;;;10.40;86.50;;;;;;4933609;29;20431;-86
2021/05/06 08:33:03;;;;;;;2.37;1.90;;;10.70;86.40;;;;;;4917942;29;20430;-86
2021/05/06 08:35:29;;;;;;;5.80;2.23;;;11.10;85.80;;;;;;4933181;29;20462;-87
2021/05/06 08:37:54;;;;;;;4.67;2.00;;;11.40;85.00;;;;;;4933284;29;20859;-86
2021/05/06 08:40:21;;;;;;;4.90;2.57;;;11.50;84.20;;;;;;4933192;29;20551;-86
2021/05/06 08:42:53;;;;;;;3.93;1.80;;;11.30;83.70;;;;;;4933452;29;20187;-86
2021/05/06 08:45:31;;;;;;;2.33;2.17;;;10.90;83.50;;;;;;4934940;29;20426;-87
2021/05/06 08:47:57;;;;;;;2.77;2.10;;;10.60;84.30;;;;;;4957500;23;20475;-78
2021/05/06 08:50:23;;;;;;;5.37;2.83;;;10.50;83.10;;;;;;4916649;29;20875;-78
2021/05/06 08:52:49;;;;;;;3.70;2.30;;;10.60;83.60;;;;;;4918167;29;20416;-77
2021/05/06 08:55:16;;;;;;;2.20;1.93;;;10.90;84.30;;;;;;4917954;29;20443;-76
2021/05/06 08:57:42;;;;;;;4.10;2.10;;;11.30;83.50;;;;;;4917939;29;20434;-77
2021/05/06 09:00:08;;;;;;;3.37;1.90;;;11.30;83.10;;;;;;4918226;29;20423;-76
2021/05/06 09:02:34;;;;;;;3.03;1.90;;;11.40;83.30;;;;;;4917966;29;20196;-76
2021/05/06 09:05:09;;;;;;;2.40;1.70;;;11.50;81.50;;;;;;4917520;29;20870;-77
2021/05/06 09:07:41;;;;;;;3.20;1.93;;;11.10;82.00;;;;;;4935122;29;20175;-76
2021/05/06 09:10:07;;;;;;;2.90;2.33;;;10.90;82.50;;;;;;4917509;29;20424;-76
2021/05/06 09:12:37;;;;;;;3.17;2.00;;;10.60;83.30;;;;;;4917644;29;20440;-76
2021/05/06 09:15:13;;;;;;;2.00;1.90;;;10.40;84.40;;;;;;4917720;29;20214;-75
2021/05/06 09:17:38;;;;;;;2.07;1.93;;;10.40;84.70;;;;;;4916889;29;20518;-75
2021/05/06 09:20:16;;;;;;;1.70;1.50;;;10.60;83.30;;;;;;4934370;29;20491;-77
2021/05/06 09:22:50;;;;;;;2.20;1.77;;;10.80;83.90;;;;;;4917541;29;20207;-77
2021/05/06 09:25:31;;;;;;;4.93;2.27;;;10.70;83.70;;;;;;4917519;29;20479;-76
2021/05/06 09:28:02;;;;;;;4.83;2.10;;;10.60;84.50;;;;;;4917432;29;20424;-76
2021/05/06 09:30:33;;;;;;;3.60;2.13;;;11.20;85.00;;;;;;4916671;29;20428;-76
2021/05/06 09:33:04;;;;;;;4.70;2.10;;;11.60;82.00;;;;;;4917324;29;20432;-76
2021/05/06 09:35:30;;;;;;;3.00;1.90;;;11.60;81.70;;;;;;4917224;29;20801;-75
2021/05/06 09:37:55;;;;;;;2.40;1.53;;;11.40;81.30;;;;;;4916911;29;20507;-75
2021/05/06 09:40:21;;;;;;;6.90;1.90;;;11.50;80.80;;;;;;4916976;29;20184;-75
2021/05/06 09:42:49;;;;;;;4.00;2.27;;;12.00;81.40;;;;;;4916879;29;20180;-74
2021/05/06 09:45:19;;;;;;;1.90;1.70;;;12.20;78.10;;;;;;4917250;29;20182;-75
2021/05/06 09:47:45;;;;;;;2.07;1.80;;;12.00;80.20;;;;;;4916932;29;20416;-76
2021/05/06 09:50:26;;;;;;;3.90;1.80;;;11.80;79.00;;;;;;4934866;29;20470;-78
2021/05/06 09:52:56;;;;;;;3.27;1.47;;;11.50;78.60;;;;;;4917763;29;20195;-75
2021/05/06 09:55:22;;;;;;;3.00;1.93;;;11.20;78.50;;;;;;4934386;29;20451;-76
2021/05/06 09:57:48;;;;;;;2.00;1.60;;;11.10;78.80;;;;;;4902029;29;20888;-74
2021/05/06 10:00:19;;;;;;;3.40;2.03;;;11.00;79.60;;;;;;4934870;29;20502;-76
2021/05/06 10:02:45;;;;;;;5.07;2.20;;;10.90;80.70;;;;;;4934197;29;20175;-74
2021/05/06 10:05:15;;;;;;;3.00;1.93;;;10.70;79.40;;;;;;4916913;29;20419;-75
2021/05/06 10:07:53;;;;;;;2.43;1.83;;;10.70;81.20;;;;;;4917449;29;20423;-74
2021/05/06 10:10:23;;;;;;;3.80;1.80;;;10.80;81.00;;;;;;4916337;29;20443;-75
2021/05/06 10:12:48;;;;;;;3.50;2.03;;;10.70;80.70;;;;;;4917157;29;20415;-75
2021/05/06 10:15:14;;;;;;;2.20;1.77;;;10.70;81.10;;;;;;4917039;29;20422;-75
2021/05/06 10:17:40;;;;;;;5.30;2.20;;;10.70;81.20;;;;;;4933579;29;20168;-75
2021/05/06 10:20:07;;;;;;;2.17;1.70;;;10.60;79.90;;;;;;4917237;29;20791;-75
2021/05/06 10:22:34;;;;;;;2.53;1.80;;;10.60;80.20;;;;;;4916710;29;20449;-75
2021/05/06 10:25:09;;;;;;;3.20;1.87;;;10.70;80.50;;;;;;4916304;29;20416;-75
2021/05/06 10:27:35;;;;;;;3.80;1.83;;;10.70;80.50;;;;;;4916796;29;20449;-75
2021/05/06 10:30:03;;;;;;;7.50;2.00;;;10.90;80.50;;;;;;4916450;29;20424;-75
2021/05/06 10:32:33;;;;;;;9.23;1.80;;;11.00;80.20;;;;;;4916422;29;21014;-75
2021/05/06 10:35:03;;;;;;;2.43;1.80;;;11.20;80.50;;;;;;4916834;29;20419;-75
2021/05/06 10:37:36;;;;;;;2.73;1.73;;;11.20;79.60;;;;;;4916231;29;20436;-74
2021/05/06 10:40:06;;;;;;;3.63;2.00;;;11.30;79.50;;;;;;4916725;29;20420;-75
2021/05/06 10:42:33;;;;;;;2.73;1.90;;;11.30;79.00;;;;;;4934166;29;20484;-76
2021/05/06 10:45:13;;;;;;;3.53;2.47;;;11.60;79.20;;;;;;4916407;29;20424;-75
2021/05/06 10:47:49;;;;;;;5.30;2.70;;;12.30;79.20;;;;;;4917094;29;20470;-75
2021/05/06 10:50:39;;;;;;;4.80;2.10;;;12.20;76.90;;;;;;4916484;29;20438;-76
2021/05/06 10:53:09;;;;;;;5.90;2.10;;;12.20;77.00;;;;;;4933416;29;20899;-75
2021/05/06 10:55:50;;;;;;;3.33;2.13;;;12.30;77.60;;;;;;4917003;29;20471;-75
2021/05/06 10:58:21;;;;;;;6.33;2.30;;;12.50;77.70;;;;;;4917032;29;20950;-75
2021/05/06 11:01:09;;;;;;;2.97;2.00;;;12.70;77.60;;;;;;4920116;29;20526;-75
2021/05/06 11:03:37;;;;;;;3.07;1.73;;;12.60;76.20;;;;;;4919949;29;20471;-75
2021/05/06 11:06:03;;;;;;;3.90;1.90;;;12.50;76.30;;;;;;4936641;29;20424;-74
2021/05/06 11:08:31;;;;;;;2.23;1.80;;;12.50;75.20;;;;;;4937432;29;20931;-75
2021/05/06 11:10:56;;;;;;;9.30;1.73;;;12.40;75.00;;;;;;4919637;29;20443;-75
2021/05/06 11:13:26;;;;;;;2.47;1.67;;;12.40;73.90;;;;;;4936791;29;20827;-75
2021/05/06 11:15:52;;;;;;;3.60;2.13;;;12.30;74.90;;;;;;4919938;29;20199;-75
2021/05/06 11:18:43;;;;;;;3.53;1.63;;;12.40;75.40;;;;;;4919416;29;20420;-74
2021/05/06 11:21:08;;;;;;;5.37;1.80;;;12.50;74.00;;;;;;4919530;29;20518;-75
2021/05/06 11:23:35;;;;;;;3.73;1.80;;;12.40;73.40;;;;;;4919629;29;20876;-74
2021/05/06 11:26:10;;;;;;;2.57;1.60;;;12.40;74.10;;;;;;4918988;29;20266;-75
2021/05/06 11:28:35;;;;;;;2.83;1.50;;;12.50;74.90;;;;;;4919455;29;20443;-75
2021/05/06 11:31:01;;;;;;;2.80;1.63;;;12.70;74.30;;;;;;4919113;29;20436;-74
2021/05/06 11:33:28;;;;;;;2.30;1.70;;;12.90;73.40;;;;;;4919323;29;20231;-74
2021/05/06 11:35:57;;;;;;;3.20;1.63;;;13.00;74.20;;;;;;4919637;29;20458;-74
2021/05/06 11:38:43;;;;;;;3.57;1.50;;;13.00;74.50;;;;;;4918869;29;20424;-75
2021/05/06 11:41:17;;;;;;;3.17;1.60;;;13.00;74.00;;;;;;4936049;29;20439;-75
2021/05/06 11:43:57;;;;;;;1.70;1.40;;;13.30;75.20;;;;;;4919180;29;20420;-74
2021/05/06 11:46:28;;;;;;;3.30;1.60;;;13.50;73.60;;;;;;4918727;29;20561;-75
2021/05/06 11:48:59;;;;;;;2.07;1.40;;;13.80;73.90;;;;;;4910348;29;21123;-75
2021/05/06 11:51:30;;;;;;;2.83;1.47;;;13.90;72.80;;;;;;4899959;29;20440;-74
2021/05/06 11:54:12;;;;;;;3.20;1.87;;;13.90;71.70;;;;;;4899517;29;20424;-75
2021/05/06 11:56:42;;;;;;;6.27;1.67;;;13.20;71.30;;;;;;4900452;29;20820;-74
2021/05/06 11:59:12;;;;;;;6.37;1.93;;;12.60;72.30;;;;;;4899763;29;20413;-76
2021/05/06 12:01:38;;;;;;;5.77;1.80;;;12.60;74.00;;;;;;4899798;29;20440;-75
2021/05/06 12:04:03;;;;;;;3.43;1.77;;;12.40;74.20;;;;;;4900221;29;20503;-74
2021/05/06 12:06:36;;;;;;;4.80;2.07;;;12.30;75.10;;;;;;4899417;29;20235;-75
2021/05/06 12:09:07;;;;;;;7.60;2.20;;;12.50;75.40;;;;;;4900001;29;20192;-75
2021/05/06 12:11:42;;;;;;;5.33;2.30;;;12.90;76.00;;;;;;4899690;29;20441;-74
2021/05/06 12:14:10;;;;;;;4.93;2.07;;;13.40;74.60;;;;;;4917945;29;20408;-74
2021/05/06 12:16:37;;;;;;;7.33;2.30;;;13.50;74.10;;;;;;4900132;29;20460;-75
2021/05/06 12:19:08;;;;;;;4.23;2.47;;;13.40;73.80;;;;;;4899732;29;20456;-74
2021/05/06 12:21:37;;;;;;;3.10;2.00;;;13.30;74.20;;;;;;4899791;29;20972;-74
2021/05/06 12:24:04;;;;;;;5.30;2.00;;;13.30;75.60;;;;;;4899863;29;20792;-74
2021/05/06 12:26:30;;;;;;;2.57;2.03;;;13.70;75.20;;;;;;4899302;29;20420;-74
2021/05/06 12:28:57;;;;;;;11.13;2.53;;;14.20;74.00;;;;;;4899217;29;20458;-75
2021/05/06 12:31:23;;;;;;;2.90;1.70;;;14.40;72.80;;;;;;4899381;29;20487;-75
2021/05/06 12:33:49;;;;;;;3.13;1.80;;;13.70;72.50;;;;;;4916707;29;21010;-75
2021/05/06 12:36:14;;;;;;;1.70;1.60;;;13.50;73.50;;;;;;4916527;29;20490;-74
2021/05/06 12:38:42;;;;;;;1.77;1.60;;;13.60;74.20;;;;;;4898642;29;20480;-74
2021/05/06 12:41:10;;;;;;;4.53;2.33;;;14.10;73.50;;;;;;4899179;29;20228;-74
2021/05/06 12:43:45;;;;;;;4.67;1.93;;;14.30;71.80;;;;;;4899392;29;20952;-74
2021/05/06 12:46:12;;;;;;;3.53;1.80;;;14.60;71.80;;;;;;4915698;29;20503;-76
2021/05/06 12:48:42;;;;;;;6.40;2.50;;;14.60;70.50;;;;;;4905900;29;20523;-74
2021/05/06 12:51:08;;;;;;;5.37;1.90;;;14.30;70.50;;;;;;4917839;29;20459;-75
2021/05/06 12:53:36;;;;;;;3.20;1.70;;;13.90;70.80;;;;;;4917981;29;20935;-76
2021/05/06 12:56:03;;;;;;;4.03;2.37;;;13.40;72.50;;;;;;4935125;29;21016;-76
2021/05/06 12:58:31;;;;;;;8.03;2.70;;;13.10;73.40;;;;;;4934431;29;20982;-76
2021/05/06 13:00:59;;;;;;;6.50;2.07;;;13.00;73.70;;;;;;4934783;29;20432;-76
2021/05/06 13:03:38;;;;;;;4.10;2.03;;;12.90;74.00;;;;;;4917700;29;20773;-77
2021/05/06 13:06:05;;;;;;;2.60;1.90;;;13.00;74.40;;;;;;4917691;29;20424;-78
2021/05/06 13:08:36;;;;;;;3.20;2.03;;;12.90;74.20;;;;;;4933670;29;20411;-75
2021/05/06 13:11:05;;;;;;;2.70;1.70;;;12.90;74.70;;;;;;4934069;29;21054;-77
2021/05/06 13:13:51;;;;;;;4.87;1.93;;;12.70;74.70;;;;;;4917278;29;20427;-77
2021/05/06 13:16:33;;;;;;;6.67;2.13;;;12.40;74.20;;;;;;4934547;29;20459;-79
2021/05/06 13:19:01;;;;;;;6.97;1.93;;;12.40;74.30;;;;;;4934262;29;20907;-76
2021/05/06 13:21:26;;;;;;;1.77;1.73;;;12.30;74.20;;;;;;4933321;29;21003;-75
2021/05/06 13:23:53;;;;;;;3.00;2.20;;;12.20;74.30;;;;;;4917401;29;20916;-76
2021/05/06 13:26:40;;;;;;;2.97;2.07;;;12.30;75.30;;;;;;4917089;29;20199;-75
2021/05/06 13:29:13;;;;;;;2.27;1.70;;;12.40;76.00;;;;;;4934550;29;20426;-76
2021/05/06 13:31:40;;;;;;;5.33;2.53;;;12.50;75.90;;;;;;4916809;29;20458;-75
2021/05/06 13:34:23;;;;;;;2.47;1.90;;;12.80;75.60;;;;;;4916789;29;20456;-75
2021/05/06 13:36:48;;;;;;;3.90;2.10;;;13.50;75.60;;;;;;4917314;29;20467;-76
2021/05/06 13:39:15;;;;;;;3.60;1.90;;;14.20;74.10;;;;;;4916947;29;20844;-77
2021/05/06 13:41:44;;;;;;;4.00;1.83;;;14.40;72.50;;;;;;4916774;29;20200;-76
2021/05/06 13:44:13;;;;;;;2.33;1.70;;;14.50;73.60;;;;;;4917313;29;20423;-78
2021/05/06 13:46:52;;;;;;;5.63;2.13;;;15.00;72.10;;;;;;4916760;29;20459;-76
2021/05/06 13:49:23;;;;;;;4.60;2.00;;;15.60;72.30;;;;;;4934324;29;20467;-76
2021/05/06 13:51:49;;;;;;;3.43;2.00;;;15.70;70.90;;;;;;4916851;29;20453;-77
2021/05/06 13:54:16;;;;;;;3.63;2.00;;;15.60;70.20;;;;;;4917476;29;21118;-76
2021/05/06 13:56:42;;;;;;;3.43;2.37;;;15.20;70.70;;;;;;4917240;29;20463;-76
2021/05/06 13:59:08;;;;;;;2.43;2.23;;;15.40;70.70;;;;;;4916660;29;20442;-76
2021/05/06 14:01:33;;;;;;;5.43;2.27;;;15.70;70.20;;;;;;4916582;29;20196;-76
2021/05/06 14:03:59;;;;;;;2.87;2.10;;;15.40;70.10;;;;;;4916848;29;20215;-76
2021/05/06 14:06:25;;;;;;;4.20;2.20;;;15.00;70.80;;;;;;4933743;29;20187;-76
2021/05/06 14:08:51;;;;;;;3.97;1.87;;;15.40;71.30;;;;;;4933727;29;20175;-78
2021/05/06 14:11:16;;;;;;;5.27;2.17;;;15.20;69.30;;;;;;4916604;29;20206;-79
2021/05/06 14:13:42;;;;;;;2.40;1.90;;;14.50;70.00;;;;;;4916600;29;20470;-76
2021/05/06 14:16:08;;;;;;;2.20;1.80;;;14.50;69.80;;;;;;4916530;29;20572;-76
2021/05/06 14:18:34;;;;;;;3.57;1.80;;;14.40;69.50;;;;;;4934192;29;20247;-77
2021/05/06 14:21:02;;;;;;;4.00;1.50;;;14.30;69.90;;;;;;4916525;29;20192;-76
2021/05/06 14:23:29;;;;;;;8.23;3.00;;;13.90;70.60;;;;;;4933915;29;20482;-76
2021/05/06 14:25:55;;;;;;;2.87;1.80;;;13.50;70.80;;;;;;4917418;29;20894;-76
2021/05/06 14:28:20;;;;;;;2.77;2.07;;;13.10;71.90;;;;;;4917362;29;20451;-76
2021/05/06 14:30:46;;;;;;;3.83;1.87;;;13.20;72.70;;;;;;4917037;29;20567;-76
2021/05/06 14:33:12;;;;;;;5.63;1.90;;;13.30;72.40;;;;;;4918207;29;20552;-76
2021/05/06 14:35:38;;;;;;;3.03;1.80;;;13.40;72.10;;;;;;4920628;29;20230;-76
2021/05/06 14:38:07;;;;;;;4.23;2.13;;;13.50;72.10;;;;;;4921605;29;20671;-76
2021/05/06 14:40:33;;;;;;;5.97;2.10;;;14.20;72.20;;;;;;4920084;29;20423;-78
2021/05/06 14:42:58;;;;;;;3.50;1.70;;;15.00;70.70;;;;;;4920384;29;20426;-76
2021/05/06 14:45:24;;;;;;;3.10;1.90;;;15.60;70.30;;;;;;4920539;29;20223;-75
2021/05/06 14:50:27;;;;;;;5.40;2.20;;;15.40;69.10;;;;;;4959463;29;20211;-71
2021/05/06 14:52:54;;;;;;;2.80;2.07;;;15.50;68.70;;;;;;4945920;29;20423;-72
2021/05/06 14:55:21;;;;;;;2.33;1.70;;;15.50;68.90;;;;;;4945176;29;20426;-73
2021/05/06 14:57:48;;;;;;;4.03;1.90;;;15.50;69.30;;;;;;4944953;29;20514;-73
2021/05/06 15:00:15;;;;;;;2.53;1.90;;;15.10;70.00;;;;;;4962204;29;20628;-73
2021/05/06 15:02:42;;;;;;;2.67;2.07;;;14.60;69.20;;;;;;4962590;29;20420;-73
2021/05/06 15:05:08;;;;;;;2.90;2.13;;;14.40;70.30;;;;;;4944576;29;21020;-73
2021/05/06 15:07:34;;;;;;;3.57;2.10;;;14.20;71.60;;;;;;4961049;29;20422;-73
2021/05/06 15:10:00;;;;;;;5.50;2.40;;;14.20;71.80;;;;;;4944105;29;20575;-73
2021/05/06 15:12:25;;;;;;;2.53;1.83;;;13.80;72.40;;;;;;4962210;29;20234;-73
2021/05/06 15:14:51;;;;;;;3.00;1.80;;;13.70;72.60;;;;;;4961838;29;20184;-73
2021/05/06 15:17:17;;;;;;;3.47;2.00;;;13.60;73.50;;;;;;4943973;29;20203;-73
2021/05/06 15:19:43;;;;;;;5.80;2.87;;;13.50;73.90;;;;;;4943329;29;20270;-73
2021/05/06 15:22:09;;;;;;;4.70;2.97;;;13.40;74.90;;;;;;4942441;29;20466;-72
2021/05/06 15:24:34;;;;;;;4.37;2.50;;;13.30;76.70;;;;;;4960666;29;20239;-74
2021/05/06 15:27:00;;;;;;;3.63;2.00;;;13.30;77.30;;;;;;4960577;29;20180;-73
2021/05/06 15:29:26;;;;;;;2.93;2.63;;;13.30;77.70;;;;;;4943969;29;20183;-73
2021/05/06 15:31:53;;;;;;;5.70;2.93;;;13.20;78.00;;;;;;4961086;29;20230;-73
2021/05/06 15:34:19;;;;;;;4.93;2.30;;;13.10;78.00;;;;;;4943544;29;20646;-74
2021/05/06 15:36:45;;;;;;;10.60;3.40;;;12.90;78.30;;;;;;4944524;29;20497;-73
2021/05/06 15:39:10;;;;;;;4.67;3.03;;;12.90;78.00;;;;;;4943795;29;20179;-74
2021/05/06 15:41:36;;;;;;;4.23;2.23;;;12.80;78.20;;;;;;4943685;29;20206;-74
2021/05/06 15:44:02;;;;;;;4.40;2.50;;;12.70;79.00;;;;;;4942760;28;20235;-74
2021/05/06 15:46:28;;;;;;;8.13;2.80;;;12.50;79.30;;;;;;4960267;28;20191;-73
2021/05/06 15:48:54;;;;;;;4.63;2.83;;;12.50;79.40;;;;;;4961555;28;20624;-73
2021/05/06 15:51:19;;;;;;;3.10;2.33;;;12.30;79.70;;;;;;4962213;28;20209;-73
2021/05/06 15:53:45;;;;;;;4.17;2.80;;;12.20;80.60;;;;;;4961610;28;20628;-73
2021/05/06 15:56:11;;;;;;;3.17;2.50;;;12.00;81.90;;;;;;4961391;28;20217;-73
2021/05/06 15:58:37;;;;;;;4.40;2.70;;;11.90;83.30;;;;;;4961078;28;20233;-73